createdAt,value
2019-01-15T00:00:14.790Z,5.43
2019-01-15T00:01:22.697Z,4.97
2019-01-15T00:02:30.489Z,4.87
2019-01-15T00:03:38.425Z,4.23
2019-01-15T00:04:46.254Z,5.50
2019-01-15T00:05:53.755Z,5.13
2019-01-15T00:07:01.490Z,4.37
2019-01-15T00:08:09.134Z,4.30
2019-01-15T00:09:16.763Z,5.13
2019-01-15T00:10:24.466Z,5.90
2019-01-15T00:11:32.292Z,5.63
2019-01-15T00:12:40.904Z,5.57
2019-01-15T00:13:48.387Z,5.27
2019-01-15T00:14:55.989Z,4.47
2019-01-15T00:16:03.752Z,5.57
2019-01-15T00:17:11.744Z,3.57
2019-01-15T00:18:23.732Z,4.67
2019-01-15T00:19:31.335Z,4.70
2019-01-15T00:20:38.798Z,5.33
2019-01-15T00:21:46.382Z,5.53
2019-01-15T00:22:53.904Z,5.33
2019-01-15T00:24:01.452Z,4.63
2019-01-15T00:25:09.231Z,4.33
2019-01-15T00:26:16.921Z,4.37
2019-01-15T00:27:24.575Z,4.83
2019-01-15T00:28:32.418Z,3.83
2019-01-15T00:29:39.883Z,4.77
2019-01-15T00:30:47.669Z,4.73
2019-01-15T00:31:55.051Z,4.17
2019-01-15T00:33:02.401Z,6.03
2019-01-15T00:34:09.948Z,4.50
2019-01-15T00:35:17.305Z,5.40
2019-01-15T00:36:24.852Z,6.73
2019-01-15T00:37:32.842Z,5.27
2019-01-15T00:38:40.171Z,5.20
2019-01-15T00:39:47.835Z,5.33
2019-01-15T00:40:55.074Z,4.43
2019-01-15T00:42:02.905Z,5.67
2019-01-15T00:43:10.838Z,4.37
2019-01-15T00:44:18.304Z,5.23
2019-01-15T00:45:26.063Z,4.73
2019-01-15T00:46:33.619Z,4.43
2019-01-15T00:47:41.337Z,4.67
2019-01-15T00:48:49.020Z,5.53
2019-01-15T00:49:56.705Z,3.70
2019-01-15T00:51:04.729Z,4.83
2019-01-15T00:52:12.330Z,3.90
2019-01-15T00:53:19.759Z,3.63
2019-01-15T00:54:27.322Z,4.30
2019-01-15T00:55:35.101Z,5.13
2019-01-15T00:56:42.937Z,4.20
2019-01-15T00:57:50.528Z,3.87
2019-01-15T00:58:57.979Z,4.03
2019-01-15T01:00:16.738Z,3.67
2019-01-15T01:01:24.288Z,3.80
2019-01-15T01:02:32.321Z,3.20
2019-01-15T01:03:40.294Z,4.60
2019-01-15T01:04:48.009Z,3.87
2019-01-15T01:05:55.898Z,3.47
2019-01-15T01:07:03.372Z,3.57
2019-01-15T01:08:10.947Z,3.53
2019-01-15T01:09:19.366Z,3.60
2019-01-15T01:10:26.928Z,3.30
2019-01-15T01:11:34.990Z,3.73
2019-01-15T01:12:42.345Z,3.33
2019-01-15T01:13:50.466Z,3.20
2019-01-15T01:14:58.070Z,2.80
2019-01-15T01:16:05.794Z,2.50
2019-01-15T01:17:13.581Z,4.23
2019-01-15T01:18:21.086Z,2.77
2019-01-15T01:19:28.859Z,3.00
2019-01-15T01:20:37.130Z,3.60
2019-01-15T01:21:45.316Z,3.20
2019-01-15T01:22:52.943Z,3.13
2019-01-15T01:24:00.589Z,3.30
2019-01-15T01:25:11.811Z,3.13
2019-01-15T01:26:19.931Z,3.13
2019-01-15T01:27:27.689Z,3.37
2019-01-15T01:28:35.550Z,3.13
2019-01-15T01:29:44.038Z,3.07
2019-01-15T01:30:51.806Z,3.50
2019-01-15T01:31:59.561Z,3.43
2019-01-15T01:33:07.023Z,2.97
2019-01-15T01:34:15.044Z,2.73
2019-01-15T01:35:22.881Z,3.27
2019-01-15T01:36:30.439Z,3.13
2019-01-15T01:37:38.574Z,2.97
2019-01-15T01:38:46.567Z,3.83
2019-01-15T01:39:54.055Z,2.83
2019-01-15T01:41:01.706Z,3.77
2019-01-15T01:42:09.325Z,3.60
2019-01-15T01:43:16.815Z,3.10
2019-01-15T01:44:24.310Z,3.57
2019-01-15T01:45:31.681Z,3.13
2019-01-15T01:46:39.416Z,3.03
2019-01-15T01:47:46.899Z,3.33
2019-01-15T01:48:54.162Z,3.00
2019-01-15T01:50:01.597Z,3.47
2019-01-15T01:51:08.889Z,4.23
2019-01-15T01:52:16.280Z,3.33
2019-01-15T01:53:23.882Z,2.77
2019-01-15T01:54:31.265Z,3.00
2019-01-15T01:55:38.791Z,3.07
2019-01-15T01:56:46.289Z,3.23
2019-01-15T01:57:53.658Z,4.07
2019-01-15T01:59:01.498Z,4.10
2019-01-15T02:00:18.469Z,2.90
2019-01-15T02:01:25.935Z,2.50
2019-01-15T02:02:33.419Z,2.30
2019-01-15T02:03:41.050Z,3.37
2019-01-15T02:04:48.485Z,3.23
2019-01-15T02:05:55.970Z,3.53
2019-01-15T02:07:03.429Z,3.03
2019-01-15T02:08:11.047Z,3.70
2019-01-15T02:09:18.672Z,3.97
2019-01-15T02:10:26.452Z,3.60
2019-01-15T02:11:34.348Z,3.77
2019-01-15T02:12:41.995Z,2.80
2019-01-15T02:13:49.687Z,3.00
2019-01-15T02:14:57.396Z,3.23
2019-01-15T02:16:04.783Z,2.70
2019-01-15T02:17:12.398Z,4.17
2019-01-15T02:18:19.986Z,3.13
2019-01-15T02:19:29.018Z,3.30
2019-01-15T02:20:36.580Z,3.00
2019-01-15T02:21:44.446Z,3.70
2019-01-15T02:22:51.972Z,2.80
2019-01-15T02:23:59.465Z,3.03
2019-01-15T02:25:12.746Z,3.00
2019-01-15T02:26:20.179Z,3.27
2019-01-15T02:27:28.113Z,3.50
2019-01-15T02:28:35.585Z,2.90
2019-01-15T02:29:43.223Z,3.10
2019-01-15T02:30:50.875Z,2.80
2019-01-15T02:31:58.527Z,3.47
2019-01-15T02:33:06.670Z,3.23
2019-01-15T02:34:14.132Z,3.23
2019-01-15T02:35:21.754Z,3.93
2019-01-15T02:36:29.574Z,3.10
2019-01-15T02:37:36.943Z,2.97
2019-01-15T02:38:44.530Z,3.53
2019-01-15T02:39:52.267Z,2.87
2019-01-15T02:40:59.707Z,3.20
2019-01-15T02:42:07.485Z,3.23
2019-01-15T02:43:15.167Z,4.03
2019-01-15T02:44:22.690Z,3.43
2019-01-15T02:45:30.267Z,3.20
2019-01-15T02:46:38.166Z,4.33
2019-01-15T02:47:45.867Z,2.97
2019-01-15T02:48:53.391Z,3.47
2019-01-15T02:50:00.792Z,2.93
2019-01-15T02:51:08.258Z,3.03
2019-01-15T02:52:15.799Z,3.23
2019-01-15T02:53:23.496Z,3.00
2019-01-15T02:54:31.050Z,3.73
2019-01-15T02:55:38.731Z,4.00
2019-01-15T02:56:46.456Z,4.13
2019-01-15T02:57:54.096Z,3.30
2019-01-15T02:59:01.656Z,4.13
2019-01-15T03:00:13.808Z,3.70
2019-01-15T03:01:21.506Z,3.00
2019-01-15T03:02:29.259Z,3.00
2019-01-15T03:03:36.617Z,2.83
2019-01-15T03:04:44.288Z,3.17
2019-01-15T03:05:51.730Z,4.13
2019-01-15T03:06:59.579Z,4.30
2019-01-15T03:08:07.126Z,3.40
2019-01-15T03:09:14.728Z,3.57
2019-01-15T03:10:23.277Z,3.63
2019-01-15T03:11:31.020Z,3.23
2019-01-15T03:12:39.378Z,2.90
2019-01-15T03:13:46.780Z,3.17
2019-01-15T03:14:54.569Z,2.97
2019-01-15T03:16:02.246Z,3.37
2019-01-15T03:17:09.841Z,2.60
2019-01-15T03:18:17.354Z,3.03
2019-01-15T03:19:24.795Z,2.97
2019-01-15T03:20:34.036Z,3.13
2019-01-15T03:21:41.658Z,3.40
2019-01-15T03:22:49.070Z,2.93
2019-01-15T03:23:56.601Z,2.50
2019-01-15T03:25:05.835Z,3.77
2019-01-15T03:26:13.415Z,3.60
2019-01-15T03:27:20.732Z,3.67
2019-01-15T03:28:29.193Z,3.83
2019-01-15T03:29:36.693Z,3.00
2019-01-15T03:30:44.252Z,3.03
2019-01-15T03:31:51.856Z,3.17
2019-01-15T03:32:59.428Z,3.63
2019-01-15T03:34:06.928Z,3.17
2019-01-15T03:35:14.606Z,3.00
2019-01-15T03:36:22.127Z,2.80
2019-01-15T03:37:29.620Z,2.73
2019-01-15T03:38:37.304Z,3.30
2019-01-15T03:39:45.050Z,3.93
2019-01-15T03:40:52.836Z,3.33
2019-01-15T03:42:00.464Z,2.97
2019-01-15T03:43:08.207Z,3.47
2019-01-15T03:44:15.773Z,3.43
2019-01-15T03:45:23.287Z,3.23
2019-01-15T03:46:30.860Z,2.60
2019-01-15T03:47:38.523Z,3.70
2019-01-15T03:48:46.130Z,3.60
2019-01-15T03:49:54.498Z,3.30
2019-01-15T03:51:01.986Z,2.57
2019-01-15T03:52:09.546Z,4.20
2019-01-15T03:53:17.081Z,2.80
2019-01-15T03:54:25.032Z,3.03
2019-01-15T03:55:32.899Z,3.00
2019-01-15T03:57:54.772Z,3.03
2019-01-15T03:59:02.592Z,2.83
2019-01-15T04:00:17.072Z,3.93
2019-01-15T04:01:24.551Z,2.70
2019-01-15T04:02:32.243Z,3.23
2019-01-15T04:03:39.828Z,3.67
2019-01-15T04:04:47.937Z,3.07
2019-01-15T04:05:55.604Z,3.73
2019-01-15T04:07:03.172Z,2.93
2019-01-15T04:08:10.679Z,2.60
2019-01-15T04:09:18.526Z,3.57
2019-01-15T04:10:26.251Z,3.90
2019-01-15T04:11:33.713Z,3.20
2019-01-15T04:12:41.204Z,3.50
2019-01-15T04:13:48.595Z,3.53
2019-01-15T04:14:56.192Z,3.90
2019-01-15T04:16:03.841Z,3.03
2019-01-15T04:17:11.337Z,4.23
2019-01-15T04:18:19.129Z,4.17
2019-01-15T04:19:26.629Z,3.83
2019-01-15T04:20:34.348Z,4.37
2019-01-15T04:21:41.881Z,4.00
2019-01-15T04:22:49.742Z,4.50
2019-01-15T04:23:57.552Z,4.50
2019-01-15T04:25:06.105Z,4.20
2019-01-15T04:26:14.012Z,3.93
2019-01-15T04:27:21.749Z,5.47
2019-01-15T04:28:29.595Z,3.50
2019-01-15T04:29:37.245Z,3.63
2019-01-15T04:30:44.877Z,3.90
2019-01-15T04:31:52.567Z,3.73
2019-01-15T04:33:00.484Z,4.63
2019-01-15T04:34:08.268Z,3.97
2019-01-15T04:35:15.994Z,4.23
2019-01-15T04:36:24.104Z,3.93
2019-01-15T04:37:31.746Z,4.10
2019-01-15T04:38:39.280Z,3.77
2019-01-15T04:39:46.895Z,4.67
2019-01-15T04:40:54.946Z,4.20
2019-01-15T04:42:02.693Z,4.33
2019-01-15T04:43:10.588Z,3.03
2019-01-15T04:44:18.296Z,4.63
2019-01-15T04:45:26.172Z,4.30
2019-01-15T04:46:33.658Z,4.33
2019-01-15T04:47:41.411Z,4.87
2019-01-15T04:48:49.471Z,4.20
2019-01-15T04:49:57.011Z,4.20
2019-01-15T04:51:04.933Z,4.93
2019-01-15T04:52:13.116Z,4.23
2019-01-15T04:53:21.031Z,4.20
2019-01-15T04:54:28.569Z,5.30
2019-01-15T04:55:40.694Z,3.93
2019-01-15T04:56:48.389Z,4.23
2019-01-15T04:57:56.039Z,4.10
2019-01-15T04:59:03.452Z,4.10
2019-01-15T05:00:20.847Z,4.43
2019-01-15T05:01:28.352Z,4.57
2019-01-15T05:02:37.170Z,4.10
2019-01-15T05:03:44.786Z,4.23
2019-01-15T05:04:52.703Z,4.77
2019-01-15T05:06:00.339Z,5.37
2019-01-15T05:07:07.962Z,4.90
2019-01-15T05:08:15.532Z,4.57
2019-01-15T05:09:24.786Z,5.10
2019-01-15T05:10:33.007Z,5.00
2019-01-15T05:11:40.770Z,5.23
2019-01-15T05:12:48.293Z,3.70
2019-01-15T05:13:56.002Z,4.93
2019-01-15T05:15:04.280Z,4.50
2019-01-15T05:16:12.025Z,4.93
2019-01-15T05:17:20.024Z,4.50
2019-01-15T05:18:27.647Z,5.13
2019-01-15T05:19:35.341Z,5.10
2019-01-15T05:20:43.235Z,4.87
2019-01-15T05:23:01.496Z,4.37
2019-01-15T05:24:09.406Z,4.33
2019-01-15T05:25:22.106Z,5.57
2019-01-15T05:26:29.929Z,5.63
2019-01-15T05:27:41.848Z,4.23
2019-01-15T05:28:49.907Z,4.43
2019-01-15T05:29:57.797Z,5.60
2019-01-15T05:31:05.721Z,4.50
2019-01-15T05:32:13.315Z,5.67
2019-01-15T05:33:21.219Z,4.37
2019-01-15T05:34:31.751Z,4.17
2019-01-15T05:35:39.617Z,4.70
2019-01-15T05:36:47.235Z,4.47
2019-01-15T05:37:55.081Z,4.70
2019-01-15T05:39:03.431Z,4.97
2019-01-15T05:40:14.957Z,5.40
2019-01-15T05:41:22.909Z,4.70
2019-01-15T05:42:31.001Z,4.00
2019-01-15T05:43:39.192Z,4.33
2019-01-15T05:44:47.134Z,4.87
2019-01-15T05:45:55.538Z,4.47
2019-01-15T05:47:03.276Z,4.80
2019-01-15T05:48:12.809Z,5.07
2019-01-15T05:49:20.722Z,4.67
2019-01-15T05:50:30.282Z,4.80
2019-01-15T05:51:38.529Z,5.73
2019-01-15T05:52:46.322Z,4.40
2019-01-15T05:53:54.086Z,5.93
2019-01-15T05:55:02.001Z,4.87
2019-01-15T05:56:10.148Z,5.23
2019-01-15T05:57:20.889Z,6.40
2019-01-15T05:58:28.557Z,6.10
2019-01-15T05:59:36.240Z,4.53
2019-01-15T06:00:43.966Z,5.40
2019-01-15T06:01:51.815Z,5.37
2019-01-15T06:02:59.578Z,5.40
2019-01-15T06:04:07.286Z,4.93
2019-01-15T06:05:15.154Z,5.33
2019-01-15T06:06:23.488Z,5.03
2019-01-15T06:07:33.782Z,5.20
2019-01-15T06:08:41.576Z,4.60
2019-01-15T06:09:49.483Z,4.63
2019-01-15T06:10:57.048Z,4.70
2019-01-15T06:12:04.893Z,5.30
2019-01-15T06:13:12.419Z,4.70
2019-01-15T06:14:20.031Z,5.00
2019-01-15T06:15:27.693Z,5.20
2019-01-15T06:16:37.539Z,5.30
2019-01-15T06:17:45.331Z,6.10
2019-01-15T06:18:52.863Z,5.77
2019-01-15T06:20:00.411Z,4.70
2019-01-15T06:21:08.061Z,4.23
2019-01-15T06:22:15.458Z,5.00
2019-01-15T06:23:23.458Z,5.13
2019-01-15T06:24:31.498Z,4.30
2019-01-15T06:25:39.712Z,4.33
2019-01-15T06:26:47.252Z,4.80
2019-01-15T06:27:54.772Z,5.60
2019-01-15T06:29:02.755Z,5.97
2019-01-15T06:30:20.024Z,6.20
2019-01-15T06:31:27.636Z,5.93
2019-01-15T06:32:35.443Z,4.67
2019-01-15T06:33:43.126Z,4.77
2019-01-15T06:34:51.487Z,4.53
2019-01-15T06:35:59.220Z,5.97
2019-01-15T06:37:06.773Z,5.80
2019-01-15T06:38:15.109Z,4.30
2019-01-15T06:39:22.744Z,5.27
2019-01-15T06:40:30.488Z,6.30
2019-01-15T06:41:38.522Z,6.80
2019-01-15T06:42:46.310Z,5.97
2019-01-15T06:43:54.153Z,5.03
2019-01-15T06:45:02.168Z,5.27
2019-01-15T06:46:09.733Z,6.23
2019-01-15T06:47:17.722Z,5.63
2019-01-15T06:48:25.421Z,5.67
2019-01-15T06:49:33.135Z,4.93
2019-01-15T06:50:40.890Z,4.87
2019-01-15T06:51:48.642Z,5.83
2019-01-15T06:52:57.292Z,5.93
2019-01-15T06:54:05.227Z,4.97
2019-01-15T06:55:17.044Z,6.20
2019-01-15T06:56:24.526Z,5.37
2019-01-15T06:57:32.192Z,5.40
2019-01-15T06:58:40.335Z,5.47
2019-01-15T06:59:49.328Z,6.27
2019-01-15T07:00:57.788Z,5.93
2019-01-15T07:02:05.550Z,5.47
2019-01-15T07:03:13.135Z,6.70
2019-01-15T07:04:20.859Z,5.97
2019-01-15T07:05:28.715Z,5.80
2019-01-15T07:06:36.288Z,5.50
2019-01-15T07:07:44.179Z,6.80
2019-01-15T07:08:52.068Z,6.30
2019-01-15T07:09:59.874Z,6.50
2019-01-15T07:11:07.593Z,6.50
2019-01-15T07:12:15.370Z,5.47
2019-01-15T07:13:23.176Z,5.33
2019-01-15T07:14:30.826Z,6.43
2019-01-15T07:15:38.407Z,5.83
2019-01-15T07:16:46.597Z,5.47
2019-01-15T07:17:54.131Z,5.63
2019-01-15T07:19:01.837Z,6.00
2019-01-15T07:20:16.433Z,6.07
2019-01-15T07:21:26.191Z,5.23
2019-01-15T07:22:34.291Z,6.77
2019-01-15T07:23:43.455Z,6.17
2019-01-15T07:24:51.101Z,5.67
2019-01-15T07:25:59.412Z,6.13
2019-01-15T07:27:07.472Z,7.60
2019-01-15T07:28:15.218Z,7.00
2019-01-15T07:29:23.050Z,6.03
2019-01-15T07:30:38.396Z,5.70
2019-01-15T07:31:46.004Z,6.03
2019-01-15T07:32:55.355Z,5.57
2019-01-15T07:34:03.731Z,7.23
2019-01-15T07:35:12.147Z,5.47
2019-01-15T07:36:20.145Z,6.30
2019-01-15T07:37:27.852Z,6.67
2019-01-15T07:38:35.421Z,5.57
2019-01-15T07:39:43.297Z,5.90
2019-01-15T07:40:50.923Z,6.13
2019-01-15T07:41:58.750Z,5.73
2019-01-15T07:43:06.779Z,6.63
2019-01-15T07:44:14.371Z,6.53
2019-01-15T07:45:22.012Z,6.87
2019-01-15T07:46:29.743Z,6.50
2019-01-15T07:47:37.316Z,7.70
2019-01-15T07:48:45.943Z,5.70
2019-01-15T07:49:54.050Z,6.40
2019-01-15T07:51:02.384Z,5.97
2019-01-15T07:52:10.047Z,8.13
2019-01-15T07:53:18.060Z,6.73
2019-01-15T07:54:25.843Z,6.90
2019-01-15T07:55:33.479Z,5.70
2019-01-15T07:56:41.293Z,6.80
2019-01-15T07:57:49.276Z,5.87
2019-01-15T07:58:57.431Z,6.77
2019-01-15T08:00:09.751Z,6.87
2019-01-15T08:01:18.707Z,6.93
2019-01-15T08:02:26.720Z,7.83
2019-01-15T08:03:34.208Z,5.87
2019-01-15T08:04:42.071Z,7.07
2019-01-15T08:05:50.168Z,6.60
2019-01-15T08:06:58.018Z,7.10
2019-01-15T08:08:05.726Z,6.87
2019-01-15T08:09:13.536Z,6.43
2019-01-15T08:10:21.373Z,5.70
2019-01-15T08:11:29.307Z,6.20
2019-01-15T08:12:37.166Z,8.17
2019-01-15T08:13:45.118Z,6.97
2019-01-15T08:14:53.152Z,6.57
2019-01-15T08:16:00.938Z,6.27
2019-01-15T08:17:08.798Z,6.90
2019-01-15T08:18:16.614Z,7.87
2019-01-15T08:19:24.441Z,7.60
2019-01-15T08:20:32.078Z,7.90
2019-01-15T08:21:39.676Z,7.73
2019-01-15T08:22:47.206Z,6.93
2019-01-15T08:23:54.792Z,6.93
2019-01-15T08:25:02.991Z,8.47
2019-01-15T08:26:10.565Z,8.60
2019-01-15T08:27:18.226Z,6.57
2019-01-15T08:28:26.153Z,7.63
2019-01-15T08:29:33.722Z,9.70
2019-01-15T08:30:41.229Z,8.93
2019-01-15T08:31:49.111Z,8.50
2019-01-15T08:32:56.817Z,8.20
2019-01-15T08:34:04.607Z,9.50
2019-01-15T08:35:13.258Z,8.80
2019-01-15T08:36:21.146Z,8.77
2019-01-15T08:37:28.738Z,9.20
2019-01-15T08:38:36.214Z,9.13
2019-01-15T08:39:44.159Z,7.63
2019-01-15T08:40:51.689Z,6.73
2019-01-15T08:41:59.827Z,8.73
2019-01-15T08:43:07.376Z,7.73
2019-01-15T08:44:19.144Z,7.43
2019-01-15T08:45:24.339Z,8.17
2019-01-15T08:46:31.924Z,7.17
2019-01-15T08:47:41.076Z,8.57
2019-01-15T08:48:49.097Z,7.53
2019-01-15T08:49:56.565Z,6.67
2019-01-15T08:51:04.473Z,6.70
2019-01-15T08:52:12.284Z,7.00
2019-01-15T08:53:22.023Z,6.87
2019-01-15T08:54:29.956Z,7.43
2019-01-15T08:55:37.837Z,7.50
2019-01-15T08:56:45.901Z,5.17
2019-01-15T08:57:54.046Z,6.37
2019-01-15T08:59:03.836Z,6.13
2019-01-15T09:00:14.803Z,6.00
2019-01-15T09:01:22.294Z,7.93
2019-01-15T09:02:30.297Z,6.03
2019-01-15T09:03:37.812Z,6.43
2019-01-15T09:04:45.657Z,6.63
2019-01-15T09:05:53.645Z,7.03
2019-01-15T09:07:02.867Z,6.57
2019-01-15T09:08:10.339Z,6.30
2019-01-15T09:09:18.246Z,6.37
2019-01-15T09:10:26.051Z,6.50
2019-01-15T09:11:33.724Z,7.80
2019-01-15T09:12:41.327Z,7.37
2019-01-15T09:13:49.092Z,6.50
2019-01-15T09:14:56.910Z,8.07
2019-01-15T09:16:04.628Z,7.53
2019-01-15T09:17:12.355Z,7.20
2019-01-15T09:18:19.944Z,5.73
2019-01-15T09:19:27.446Z,9.07
2019-01-15T09:20:35.163Z,8.70
2019-01-15T09:21:42.853Z,8.27
2019-01-15T09:22:51.211Z,7.60
2019-01-15T09:23:58.968Z,7.93
2019-01-15T09:25:07.171Z,8.40
2019-01-15T09:26:15.432Z,6.30
2019-01-15T09:27:23.286Z,7.40
2019-01-15T09:28:31.137Z,8.10
2019-01-15T09:29:38.926Z,6.30
2019-01-15T09:30:46.413Z,6.53
2019-01-15T09:31:54.068Z,5.83
2019-01-15T09:33:01.841Z,5.60
2019-01-15T09:34:09.884Z,6.73
2019-01-15T09:35:18.238Z,6.40
2019-01-15T09:36:26.112Z,6.37
2019-01-15T09:37:34.110Z,6.73
2019-01-15T09:38:41.773Z,6.33
2019-01-15T09:39:49.279Z,6.50
2019-01-15T09:40:56.779Z,7.37
2019-01-15T09:42:05.905Z,6.43
2019-01-15T09:43:13.794Z,6.13
2019-01-15T09:44:21.665Z,6.40
2019-01-15T09:45:29.433Z,5.27
2019-01-15T09:46:36.951Z,6.83
2019-01-15T09:47:55.552Z,6.03
2019-01-15T09:49:03.385Z,5.20
2019-01-15T09:50:12.989Z,5.20
2019-01-15T09:51:20.747Z,5.13
2019-01-15T09:52:28.495Z,5.60
2019-01-15T09:53:36.079Z,5.47
2019-01-15T09:54:45.303Z,5.57
2019-01-15T09:55:52.984Z,5.80
2019-01-15T09:57:00.684Z,7.03
2019-01-15T09:58:08.211Z,9.63
2019-01-15T09:59:15.818Z,5.97
2019-01-15T10:00:23.627Z,8.53
2019-01-15T10:01:31.649Z,9.40
2019-01-15T10:02:39.513Z,10.57
2019-01-15T10:03:47.358Z,9.43
2019-01-15T10:04:54.947Z,8.33
2019-01-15T10:06:02.987Z,9.97
2019-01-15T10:07:10.829Z,8.73
2019-01-15T10:08:18.463Z,9.73
2019-01-15T10:09:26.460Z,9.57
2019-01-15T10:10:34.203Z,9.23
2019-01-15T10:11:41.942Z,9.93
2019-01-15T10:12:49.879Z,8.50
2019-01-15T10:13:57.705Z,9.37
2019-01-15T10:15:10.230Z,8.20
2019-01-15T10:16:17.714Z,10.53
2019-01-15T10:17:25.470Z,13.20
2019-01-15T10:18:33.848Z,8.80
2019-01-15T10:19:41.484Z,8.50
2019-01-15T10:20:49.524Z,11.20
2019-01-15T10:21:57.251Z,10.47
2019-01-15T10:23:05.075Z,11.47
2019-01-15T10:24:12.944Z,11.60
2019-01-15T10:25:27.584Z,10.97
2019-01-15T10:26:35.184Z,9.07
2019-01-15T10:27:43.586Z,11.40
2019-01-15T10:28:51.166Z,8.73
2019-01-15T10:30:00.740Z,11.17
2019-01-15T10:31:46.465Z,9.23
2019-01-15T10:33:07.703Z,11.13
2019-01-15T10:34:16.760Z,10.93
2019-01-15T10:35:45.946Z,9.50
2019-01-15T10:36:52.251Z,9.57
2019-01-15T10:38:00.076Z,10.80
2019-01-15T10:39:10.679Z,10.43
2019-01-15T10:40:18.433Z,12.17
2019-01-15T10:41:26.485Z,13.63
2019-01-15T10:42:34.263Z,10.47
2019-01-15T10:43:42.040Z,14.70
2019-01-15T10:44:49.754Z,10.93
2019-01-15T10:45:57.415Z,12.40
2019-01-15T10:47:05.327Z,9.40
2019-01-15T10:48:13.274Z,9.53
2019-01-15T10:49:20.961Z,10.73
2019-01-15T10:50:29.067Z,11.00
2019-01-15T10:51:36.696Z,13.13
2019-01-15T10:52:44.534Z,10.93
2019-01-15T10:53:52.422Z,12.97
2019-01-15T10:55:00.546Z,10.80
2019-01-15T10:56:08.366Z,11.77
2019-01-15T10:57:16.004Z,9.77
2019-01-15T10:58:23.867Z,12.33
2019-01-15T10:59:32.106Z,10.77
2019-01-15T11:00:39.824Z,10.30
2019-01-15T11:01:47.815Z,12.13
2019-01-15T11:02:55.511Z,10.23
2019-01-15T11:04:03.410Z,10.97
2019-01-15T11:05:12.666Z,9.47
2019-01-15T11:06:20.380Z,11.67
2019-01-15T11:07:28.207Z,10.83
2019-01-15T11:08:36.303Z,9.43
2019-01-15T11:09:43.978Z,10.00
2019-01-15T11:10:51.548Z,11.57
2019-01-15T11:11:59.343Z,10.60
2019-01-15T11:13:07.031Z,13.83
2019-01-15T11:14:16.286Z,9.50
2019-01-15T11:15:23.947Z,11.73
2019-01-15T11:16:31.738Z,12.30
2019-01-15T11:17:39.429Z,9.67
2019-01-15T11:18:47.450Z,12.30
2019-01-15T11:19:55.405Z,12.07
2019-01-15T11:21:03.772Z,13.43
2019-01-15T11:22:11.727Z,13.33
2019-01-15T11:23:19.903Z,12.43
2019-01-15T11:24:27.698Z,11.67
2019-01-15T11:25:37.258Z,10.63
2019-01-15T11:26:45.143Z,13.30
2019-01-15T11:27:53.497Z,11.70
2019-01-15T11:29:01.144Z,11.37
2019-01-15T11:30:14.554Z,11.57
2019-01-15T11:31:22.155Z,11.83
2019-01-15T11:32:29.978Z,11.97
2019-01-15T11:33:37.810Z,12.10
2019-01-15T11:34:49.097Z,11.90
2019-01-15T11:35:56.872Z,12.80
2019-01-15T11:37:22.987Z,11.27
2019-01-15T11:38:30.755Z,9.37
2019-01-15T11:39:38.632Z,13.53
2019-01-15T11:40:46.284Z,11.27
2019-01-15T11:41:53.776Z,13.47
2019-01-15T11:43:01.452Z,10.87
2019-01-15T11:44:09.811Z,11.57
2019-01-15T11:45:21.244Z,10.50
2019-01-15T11:46:28.712Z,10.00
2019-01-15T11:47:36.362Z,10.53
2019-01-15T11:48:44.239Z,10.10
2019-01-15T11:49:52.267Z,10.53
2019-01-15T11:51:00.040Z,11.80
2019-01-15T11:52:07.782Z,10.17
2019-01-15T11:53:15.617Z,9.27
2019-01-15T11:54:23.233Z,12.30
2019-01-15T11:55:31.111Z,9.30
2019-01-15T11:56:39.061Z,9.53
2019-01-15T11:57:46.901Z,13.90
2019-01-15T11:58:55.091Z,9.93
2019-01-15T12:00:03.082Z,10.33
2019-01-15T12:01:13.922Z,10.60
2019-01-15T12:02:22.730Z,11.57
2019-01-15T12:03:38.369Z,12.20
2019-01-15T12:04:47.917Z,9.50
2019-01-15T12:06:00.202Z,11.20
2019-01-15T12:07:09.797Z,9.67
2019-01-15T12:08:25.527Z,9.47
2019-01-15T12:09:52.929Z,9.60
2019-01-15T12:11:00.670Z,9.63
2019-01-15T12:12:19.163Z,8.07
2019-01-15T12:13:31.042Z,9.37
2019-01-15T12:14:55.398Z,10.93
2019-01-15T12:16:20.680Z,7.53
2019-01-15T12:17:33.025Z,7.77
2019-01-15T12:18:50.025Z,8.90
2019-01-15T12:19:59.251Z,8.30
2019-01-15T12:21:14.621Z,8.13
2019-01-15T12:22:27.725Z,6.37
2019-01-15T12:23:55.249Z,8.03
2019-01-15T12:25:07.536Z,7.40
2019-01-15T12:26:19.870Z,6.13
2019-01-15T12:27:47.638Z,7.50
2019-01-15T12:29:06.649Z,7.30
2019-01-15T12:30:17.190Z,7.87
2019-01-15T12:31:26.469Z,6.60
2019-01-15T12:32:36.356Z,7.90
2019-01-15T12:33:57.554Z,7.07
2019-01-15T12:35:09.313Z,7.17
2019-01-15T12:36:18.594Z,7.37
2019-01-15T12:37:43.857Z,7.27
2019-01-15T12:38:51.386Z,6.63
2019-01-15T12:40:17.409Z,6.70
2019-01-15T12:41:26.776Z,5.70
2019-01-15T12:42:39.234Z,6.93
2019-01-15T12:44:00.546Z,7.00
2019-01-15T12:45:30.950Z,7.70
2019-01-15T12:46:49.158Z,6.93
2019-01-15T12:48:16.010Z,6.77
2019-01-15T12:49:28.202Z,6.93
2019-01-15T12:50:37.297Z,7.03
2019-01-15T12:51:46.441Z,6.00
2019-01-15T12:52:58.412Z,6.87
2019-01-15T12:54:16.690Z,6.63
2019-01-15T12:55:38.292Z,5.73
2019-01-15T12:56:50.454Z,7.10
2019-01-15T12:58:16.132Z,6.23
2019-01-15T12:59:25.534Z,6.77
2019-01-15T13:00:50.910Z,5.33
2019-01-15T13:02:09.079Z,6.37
2019-01-15T13:03:19.298Z,8.17
2019-01-15T13:04:31.455Z,7.40
2019-01-15T13:05:43.957Z,6.77
2019-01-15T13:07:09.525Z,6.83
2019-01-15T13:08:24.776Z,7.07
2019-01-15T13:09:40.121Z,6.67
2019-01-15T13:10:49.305Z,7.33
2019-01-15T13:11:59.461Z,6.63
2019-01-15T13:13:09.117Z,6.53
2019-01-15T13:14:18.340Z,5.00
2019-01-15T13:15:43.772Z,5.77
2019-01-15T13:17:09.176Z,6.47
2019-01-15T13:18:21.159Z,6.33
2019-01-15T13:19:39.603Z,6.77
2019-01-15T13:21:05.368Z,7.10
2019-01-15T13:22:17.910Z,7.03
2019-01-15T13:23:35.718Z,5.30
2019-01-15T13:24:44.871Z,6.00
2019-01-15T13:26:03.199Z,7.80
2019-01-15T13:27:12.448Z,7.27
2019-01-15T13:28:29.312Z,6.03
2019-01-15T13:29:38.683Z,5.43
2019-01-15T13:30:59.738Z,7.00
2019-01-15T13:32:08.911Z,5.73
2019-01-15T13:33:24.419Z,7.07
2019-01-15T13:34:49.734Z,7.43
2019-01-15T13:36:02.549Z,6.80
2019-01-15T13:37:14.986Z,7.43
2019-01-15T13:38:24.046Z,6.43
2019-01-15T13:39:48.495Z,6.77
2019-01-15T13:40:57.716Z,6.90
2019-01-15T13:42:09.935Z,7.87
2019-01-15T13:43:28.279Z,7.77
2019-01-15T13:44:40.044Z,7.10
2019-01-15T13:45:52.170Z,6.13
2019-01-15T13:47:18.171Z,5.90
2019-01-15T13:48:42.885Z,6.53
2019-01-15T13:49:57.522Z,7.63
2019-01-15T13:51:06.777Z,6.73
2019-01-15T13:52:25.103Z,6.93
2019-01-15T13:53:34.391Z,7.83
2019-01-15T13:54:49.900Z,5.70
2019-01-15T13:56:00.111Z,6.63
2019-01-15T13:57:15.223Z,8.10
2019-01-15T13:58:33.446Z,8.20
2019-01-15T13:59:45.194Z,8.17
2019-01-15T14:00:54.427Z,7.13
2019-01-15T14:02:05.287Z,6.73
2019-01-15T14:03:20.957Z,8.83
2019-01-15T14:04:47.491Z,7.00
2019-01-15T14:05:56.199Z,6.77
2019-01-15T14:07:05.465Z,7.30
2019-01-15T14:08:23.676Z,7.97
2019-01-15T14:09:32.982Z,6.03
2019-01-15T14:10:44.870Z,7.70
2019-01-15T14:12:10.108Z,6.70
2019-01-15T14:13:29.287Z,6.17
2019-01-15T14:14:41.576Z,7.43
2019-01-15T14:15:51.192Z,5.87
2019-01-15T14:17:00.373Z,6.17
2019-01-15T14:18:18.654Z,5.47
2019-01-15T14:19:28.107Z,6.80
2019-01-15T14:20:53.640Z,5.87
2019-01-15T14:22:02.913Z,6.77
2019-01-15T14:23:13.833Z,7.20
2019-01-15T14:24:23.504Z,7.50
2019-01-15T14:25:42.207Z,7.13
2019-01-15T14:26:54.708Z,6.57
2019-01-15T14:28:20.563Z,7.37
2019-01-15T14:29:39.103Z,7.53
2019-01-15T14:30:49.288Z,7.90
2019-01-15T14:32:04.478Z,7.27
2019-01-15T14:33:16.511Z,6.80
2019-01-15T14:34:42.459Z,6.33
2019-01-15T14:35:59.254Z,6.83
2019-01-15T14:37:25.554Z,6.73
2019-01-15T14:38:39.545Z,8.77
2019-01-15T14:39:50.030Z,6.83
2019-01-15T14:41:05.312Z,7.20
2019-01-15T14:42:20.969Z,6.47
2019-01-15T14:43:35.211Z,7.37
2019-01-15T14:44:42.807Z,7.23
2019-01-15T14:46:07.988Z,7.20
2019-01-15T14:47:23.054Z,8.60
2019-01-15T14:48:38.799Z,7.70
2019-01-15T14:50:04.285Z,7.33
2019-01-15T14:51:28.715Z,5.83
2019-01-15T14:52:44.284Z,6.67
2019-01-15T14:53:53.928Z,7.03
2019-01-15T14:55:13.683Z,7.73
2019-01-15T14:56:32.167Z,7.27
2019-01-15T14:57:41.861Z,8.17
2019-01-15T14:58:57.367Z,8.80
2019-01-15T15:00:17.007Z,8.73
2019-01-15T15:01:43.217Z,8.07
2019-01-15T15:03:01.677Z,8.37
2019-01-15T15:04:14.186Z,8.40
2019-01-15T15:05:33.425Z,7.53
2019-01-15T15:06:58.488Z,6.60
2019-01-15T15:08:07.966Z,9.20
2019-01-15T15:09:20.449Z,7.63
2019-01-15T15:10:34.449Z,7.33
2019-01-15T15:12:00.136Z,7.67
2019-01-15T15:13:09.307Z,6.53
2019-01-15T15:14:35.251Z,8.07
2019-01-15T15:16:03.778Z,8.50
2019-01-15T15:17:15.354Z,7.30
2019-01-15T15:18:42.699Z,8.53
2019-01-15T15:20:08.137Z,7.93
2019-01-15T15:21:23.210Z,7.80
2019-01-15T15:22:32.336Z,8.47
2019-01-15T15:23:48.157Z,7.97
2019-01-15T15:24:57.621Z,8.70
2019-01-15T15:26:13.080Z,8.43
2019-01-15T15:27:22.331Z,9.13